createdAt,value
2022-10-17T00:01:01.441Z,14.48
2022-10-17T00:03:46.822Z,14.59
2022-10-17T00:06:32.352Z,14.56
2022-10-17T00:09:17.505Z,14.63
2022-10-17T00:12:02.522Z,14.66
2022-10-17T00:14:47.511Z,14.67
2022-10-17T00:17:33.905Z,14.71
2022-10-17T00:20:18.910Z,14.83
2022-10-17T00:23:04.315Z,14.70
2022-10-17T00:26:01.533Z,14.71
2022-10-17T00:28:51.769Z,14.70
2022-10-17T00:31:37.229Z,14.62
2022-10-17T00:34:22.600Z,14.67
2022-10-17T00:37:07.982Z,14.62
2022-10-17T00:39:53.980Z,14.62
2022-10-17T00:42:39.411Z,14.72
2022-10-17T00:45:30.446Z,14.70
2022-10-17T00:48:21.170Z,14.68
2022-10-17T00:51:09.089Z,14.73
2022-10-17T00:53:55.330Z,14.75
2022-10-17T00:56:41.098Z,14.68
2022-10-17T00:59:28.053Z,14.65
2022-10-17T01:02:15.835Z,14.70
2022-10-17T01:05:01.610Z,14.69
2022-10-17T01:07:49.132Z,14.76
2022-10-17T01:10:54.672Z,14.75
2022-10-17T01:13:49.417Z,14.64
2022-10-17T01:16:37.558Z,14.55
2022-10-17T01:19:31.441Z,14.64
2022-10-17T01:22:27.150Z,14.57
2022-10-17T01:25:21.449Z,14.60
2022-10-17T01:28:24.704Z,14.55
2022-10-17T01:31:21.767Z,14.56
2022-10-17T01:34:21.240Z,14.51
2022-10-17T01:37:16.635Z,14.49
2022-10-17T01:40:05.186Z,14.48
2022-10-17T01:43:07.393Z,14.47
2022-10-17T01:45:59.271Z,14.47
2022-10-17T01:48:46.324Z,14.52
2022-10-17T01:51:39.037Z,14.59
2022-10-17T01:54:52.918Z,14.54
2022-10-17T01:57:42.192Z,14.56
2022-10-17T02:00:28.203Z,14.49
2022-10-17T02:03:18.096Z,14.51
2022-10-17T02:06:04.060Z,14.51
2022-10-17T02:08:51.064Z,14.51
2022-10-17T02:11:36.953Z,14.52
2022-10-17T02:14:40.865Z,14.44
2022-10-17T02:17:44.566Z,14.45
2022-10-17T02:20:47.026Z,14.59
2022-10-17T02:24:00.473Z,14.62
2022-10-17T02:26:55.325Z,14.49
2022-10-17T02:30:13.845Z,14.56
2022-10-17T02:33:05.425Z,14.50
2022-10-17T02:35:54.531Z,14.49
2022-10-17T02:38:42.000Z,14.57
2022-10-17T02:44:18.744Z,14.56
2022-10-17T02:47:12.644Z,14.56
2022-10-17T02:49:58.208Z,14.52
2022-10-17T02:53:01.221Z,14.49
2022-10-17T02:55:53.627Z,14.55
2022-10-17T02:58:40.349Z,14.47
2022-10-17T03:01:27.253Z,14.45
2022-10-17T03:04:14.373Z,14.42
2022-10-17T03:07:00.031Z,14.36
2022-10-17T03:09:44.967Z,14.44
2022-10-17T03:12:30.466Z,14.45
2022-10-17T03:15:15.940Z,14.41
2022-10-17T03:18:01.128Z,14.42
2022-10-17T03:20:46.615Z,14.40
2022-10-17T03:23:31.543Z,14.36
2022-10-17T03:26:17.083Z,14.41
2022-10-17T03:29:02.430Z,14.40
2022-10-17T03:31:47.898Z,14.38
2022-10-17T03:34:51.887Z,14.46
2022-10-17T03:37:37.344Z,14.48
2022-10-17T03:40:22.768Z,14.53
2022-10-17T03:43:07.665Z,14.47
2022-10-17T03:45:52.771Z,14.52
2022-10-17T03:48:37.595Z,14.47
2022-10-17T03:51:23.195Z,14.46
2022-10-17T03:54:08.475Z,14.52
2022-10-17T03:56:54.052Z,14.58
2022-10-17T03:59:39.480Z,14.55
2022-10-17T04:02:24.638Z,14.56
2022-10-17T04:05:09.638Z,14.46
2022-10-17T04:07:54.463Z,14.37
2022-10-17T04:10:39.887Z,14.36
2022-10-17T04:13:25.307Z,14.41
2022-10-17T04:16:15.848Z,14.48
2022-10-17T04:19:01.328Z,14.50
2022-10-17T04:21:46.444Z,14.39
2022-10-17T04:24:31.960Z,14.39
2022-10-17T04:27:17.349Z,14.37
2022-10-17T04:30:02.703Z,14.39
2022-10-17T04:32:47.760Z,14.43
2022-10-17T04:35:32.919Z,14.49
2022-10-17T04:38:17.823Z,14.46
2022-10-17T04:41:06.196Z,14.50
2022-10-17T04:43:51.477Z,14.55
2022-10-17T04:46:36.835Z,14.44
2022-10-17T04:49:21.973Z,14.47
2022-10-17T04:52:06.984Z,14.37
2022-10-17T04:54:51.960Z,14.39
2022-10-17T04:57:37.116Z,14.28
2022-10-17T05:00:22.706Z,14.30
2022-10-17T05:03:07.674Z,14.38
2022-10-17T05:05:53.135Z,14.40
2022-10-17T05:08:38.925Z,14.38
2022-10-17T05:11:28.707Z,14.48
2022-10-17T05:14:15.354Z,14.32
2022-10-17T05:17:00.563Z,14.34
2022-10-17T05:19:45.974Z,14.33
2022-10-17T05:22:31.436Z,14.27
2022-10-17T05:25:17.032Z,14.24
2022-10-17T05:28:02.597Z,14.14
2022-10-17T05:30:47.738Z,14.17
2022-10-17T05:33:33.971Z,14.25
2022-10-17T05:36:19.304Z,14.22
2022-10-17T05:39:04.676Z,14.28
2022-10-17T05:41:49.961Z,14.23
2022-10-17T05:44:35.062Z,14.22
2022-10-17T05:47:20.004Z,14.22
2022-10-17T05:50:06.230Z,14.20
2022-10-17T05:52:55.488Z,14.25
2022-10-17T05:55:40.343Z,14.28
2022-10-17T05:58:45.423Z,14.35
2022-10-17T06:01:31.604Z,14.30
2022-10-17T06:04:17.250Z,14.40
2022-10-17T06:07:02.146Z,14.46
2022-10-17T06:09:47.077Z,14.52
2022-10-17T06:12:32.231Z,14.53
2022-10-17T06:15:17.279Z,14.44
2022-10-17T06:18:02.262Z,14.41
2022-10-17T06:20:47.884Z,14.42
2022-10-17T06:23:33.193Z,14.33
2022-10-17T06:26:19.326Z,14.37
2022-10-17T06:29:04.728Z,14.40
2022-10-17T06:31:50.215Z,14.41
2022-10-17T06:34:35.324Z,14.47
2022-10-17T06:37:20.724Z,14.49
2022-10-17T06:40:06.901Z,14.69
2022-10-17T06:42:51.962Z,14.73
2022-10-17T06:45:39.020Z,14.89
2022-10-17T06:48:24.380Z,15.00
2022-10-17T06:51:10.914Z,15.00
2022-10-17T06:53:58.085Z,15.13
2022-10-17T06:56:43.443Z,15.08
2022-10-17T06:59:28.594Z,15.14
2022-10-17T07:02:13.947Z,15.18
2022-10-17T07:04:58.839Z,15.25
2022-10-17T07:07:45.577Z,15.35
2022-10-17T07:10:32.649Z,15.45
2022-10-17T07:13:18.500Z,15.43
2022-10-17T07:16:04.320Z,15.42
2022-10-17T07:18:50.608Z,15.47
2022-10-17T07:21:38.953Z,15.65
2022-10-17T07:24:24.564Z,15.70
2022-10-17T07:27:09.860Z,15.71
2022-10-17T07:29:54.942Z,15.78
2022-10-17T07:32:40.416Z,15.80
2022-10-17T07:35:26.037Z,15.91
2022-10-17T07:38:10.926Z,15.91
2022-10-17T07:41:00.744Z,15.97
2022-10-17T07:43:46.191Z,16.00
2022-10-17T07:46:31.256Z,16.12
2022-10-17T07:49:16.652Z,16.14
2022-10-17T07:52:02.045Z,16.28
2022-10-17T07:54:47.289Z,16.29
2022-10-17T07:57:32.217Z,16.41
2022-10-17T08:00:17.517Z,16.47
2022-10-17T08:03:03.183Z,16.56
2022-10-17T08:05:48.175Z,16.75
2022-10-17T08:08:33.509Z,16.73
2022-10-17T08:11:19.028Z,16.85
2022-10-17T08:14:04.278Z,16.81
2022-10-17T08:16:49.665Z,16.92
2022-10-17T08:19:37.649Z,17.07
2022-10-17T08:22:23.224Z,17.10
2022-10-17T08:25:08.838Z,17.16
2022-10-17T08:27:54.297Z,17.34
2022-10-17T08:30:39.691Z,17.40
2022-10-17T08:33:25.084Z,17.44
2022-10-17T08:36:12.787Z,17.48
2022-10-17T08:38:58.001Z,17.54
2022-10-17T08:42:01.409Z,17.69
2022-10-17T08:45:31.560Z,17.77
2022-10-17T08:48:21.320Z,17.84
2022-10-17T08:51:30.966Z,17.95
2022-10-17T08:54:36.446Z,17.97
2022-10-17T08:57:22.067Z,18.00
2022-10-17T09:00:22.891Z,18.19
2022-10-17T09:03:08.174Z,18.25
2022-10-17T09:06:05.892Z,18.24
2022-10-17T09:09:11.618Z,18.27
2022-10-17T09:11:57.055Z,18.36
2022-10-17T09:15:00.891Z,18.43
2022-10-17T09:18:11.219Z,18.51
2022-10-17T09:21:27.822Z,18.67
2022-10-17T09:24:28.066Z,18.88
2022-10-17T09:27:46.240Z,19.02
2022-10-17T09:30:45.031Z,19.22
2022-10-17T09:33:53.899Z,19.35
2022-10-17T09:36:40.754Z,19.49
2022-10-17T09:39:26.641Z,19.64
2022-10-17T09:42:17.830Z,19.79
2022-10-17T09:45:24.768Z,19.83
2022-10-17T09:48:09.855Z,19.93
2022-10-17T09:51:08.236Z,20.13
2022-10-17T09:54:04.623Z,20.37
2022-10-17T09:57:08.436Z,20.62
2022-10-17T10:00:02.713Z,20.69
2022-10-17T10:02:48.166Z,20.58
2022-10-17T10:05:33.252Z,20.59
2022-10-17T10:08:19.716Z,20.55
2022-10-17T10:11:11.841Z,20.51
2022-10-17T10:14:12.054Z,20.54
2022-10-17T10:16:56.865Z,20.58
2022-10-17T10:19:50.269Z,20.59
2022-10-17T10:22:35.979Z,20.78
2022-10-17T10:25:21.556Z,20.76
2022-10-17T10:28:11.492Z,20.68
2022-10-17T10:30:58.673Z,20.69
2022-10-17T10:33:49.347Z,20.95
2022-10-17T10:36:59.278Z,20.98
2022-10-17T10:39:49.417Z,20.99
2022-10-17T10:42:37.599Z,21.01
2022-10-17T10:45:49.287Z,21.13
2022-10-17T10:48:36.570Z,21.16
2022-10-17T10:51:49.515Z,21.20
2022-10-17T10:57:33.849Z,21.16
2022-10-17T11:00:25.152Z,21.15
2022-10-17T11:03:23.610Z,21.24
2022-10-17T11:06:23.693Z,21.21
2022-10-17T11:09:34.609Z,21.24
2022-10-17T11:12:25.455Z,21.16
2022-10-17T11:15:25.026Z,21.07
2022-10-17T11:18:24.283Z,21.20
2022-10-17T11:21:16.284Z,21.20
2022-10-17T11:24:21.639Z,21.13
2022-10-17T11:27:08.039Z,21.23
2022-10-17T11:29:53.624Z,21.19
2022-10-17T11:32:51.566Z,21.19
2022-10-17T11:35:40.691Z,21.13
2022-10-17T11:38:38.299Z,21.13
2022-10-17T11:41:35.157Z,21.17
2022-10-17T11:44:32.062Z,21.17
2022-10-17T11:47:20.323Z,21.19
2022-10-17T11:54:04.593Z,21.14
2022-10-17T11:57:05.228Z,21.09
2022-10-17T12:00:42.780Z,21.10
2022-10-17T12:03:35.672Z,20.95
2022-10-17T12:06:51.180Z,20.95
2022-10-17T12:09:42.348Z,20.96
2022-10-17T12:12:34.139Z,20.86
2022-10-17T12:15:19.532Z,20.86
2022-10-17T12:18:04.957Z,20.87
2022-10-17T12:21:00.999Z,20.84
2022-10-17T12:23:54.427Z,20.92
2022-10-17T12:26:39.615Z,20.83
2022-10-17T12:29:30.092Z,20.86
2022-10-17T12:32:15.927Z,20.83
2022-10-17T12:35:01.423Z,20.78
2022-10-17T12:37:50.635Z,20.71
2022-10-17T12:40:36.077Z,20.73
2022-10-17T12:43:27.474Z,20.68
2022-10-17T12:46:13.523Z,20.71
2022-10-17T12:49:00.360Z,20.66
2022-10-17T12:52:20.822Z,20.67
2022-10-17T12:55:15.768Z,20.65
2022-10-17T12:58:12.450Z,20.52
2022-10-17T13:01:22.724Z,20.51
2022-10-17T13:04:04.777Z,20.53
2022-10-17T13:06:56.124Z,20.48
2022-10-17T13:09:44.176Z,20.45
2022-10-17T13:12:29.390Z,20.47
2022-10-17T13:15:18.949Z,20.56
2022-10-17T13:18:04.655Z,20.58
2022-10-17T13:21:07.196Z,20.52
2022-10-17T13:23:52.695Z,20.62
2022-10-17T13:26:38.278Z,20.59
2022-10-17T13:29:23.955Z,20.56
2022-10-17T13:32:10.209Z,20.57
2022-10-17T13:35:14.000Z,20.57
2022-10-17T13:38:00.383Z,20.56
2022-10-17T13:40:50.113Z,20.56
2022-10-17T13:43:35.622Z,20.62
2022-10-17T13:46:37.469Z,20.64
2022-10-17T13:49:32.370Z,20.53
2022-10-17T13:52:20.374Z,20.53
2022-10-17T13:55:08.841Z,20.50
2022-10-17T13:57:54.039Z,20.42
2022-10-17T14:00:39.489Z,20.48
2022-10-17T14:03:31.232Z,20.44
2022-10-17T14:06:26.921Z,20.44
2022-10-17T14:09:23.531Z,20.51
2022-10-17T14:12:11.733Z,20.51
2022-10-17T14:15:10.151Z,20.43
2022-10-17T14:18:06.714Z,20.35
2022-10-17T14:24:22.234Z,20.30
2022-10-17T14:27:35.170Z,20.31
2022-10-17T14:30:51.606Z,20.23
2022-10-17T14:33:32.357Z,20.22
2022-10-17T14:36:18.474Z,20.22
2022-10-17T14:39:10.577Z,20.18
2022-10-17T14:42:03.398Z,20.19
2022-10-17T14:44:52.871Z,20.15
2022-10-17T14:47:43.625Z,20.17
2022-10-17T14:50:31.751Z,20.13
2022-10-17T14:53:17.526Z,20.13
2022-10-17T14:56:20.197Z,20.15
2022-10-17T14:59:11.118Z,20.11
2022-10-17T15:01:57.802Z,20.11
2022-10-17T15:04:43.177Z,20.17
2022-10-17T15:07:28.634Z,20.15
2022-10-17T15:10:32.791Z,20.07
2022-10-17T15:13:39.962Z,20.11
2022-10-17T15:16:25.662Z,20.18
2022-10-17T15:19:13.416Z,20.15
2022-10-17T15:21:58.544Z,20.17
2022-10-17T15:24:44.789Z,20.14
2022-10-17T15:27:30.392Z,20.18
2022-10-17T15:30:31.558Z,20.12
2022-10-17T15:33:16.726Z,20.18
2022-10-17T15:36:01.587Z,20.08
2022-10-17T15:38:47.829Z,20.03
2022-10-17T15:41:33.316Z,19.98
2022-10-17T15:44:18.331Z,19.93
2022-10-17T15:47:04.211Z,19.96
2022-10-17T15:49:50.198Z,19.93
2022-10-17T15:52:35.480Z,19.85
2022-10-17T15:55:20.829Z,19.81
2022-10-17T15:58:06.398Z,19.76
2022-10-17T16:00:51.603Z,19.68
2022-10-17T16:03:36.998Z,19.69
2022-10-17T16:06:23.473Z,19.74
2022-10-17T16:09:09.430Z,19.73
2022-10-17T16:11:54.965Z,19.63
2022-10-17T16:14:40.129Z,19.44
2022-10-17T16:17:25.335Z,19.42
2022-10-17T16:20:12.221Z,19.39
2022-10-17T16:22:57.377Z,19.40
2022-10-17T16:25:42.670Z,19.38
2022-10-17T16:28:27.873Z,19.31
2022-10-17T16:31:18.175Z,19.20
2022-10-17T16:34:04.402Z,18.93
2022-10-17T16:36:50.017Z,18.91
2022-10-17T16:39:35.382Z,18.72
2022-10-17T16:42:21.102Z,18.66
2022-10-17T16:45:06.532Z,18.66
2022-10-17T16:47:52.184Z,18.51
2022-10-17T16:50:39.652Z,18.17
2022-10-17T16:53:24.917Z,18.01
2022-10-17T16:56:13.150Z,17.90
2022-10-17T16:58:59.880Z,17.87
2022-10-17T17:01:45.119Z,17.81
2022-10-17T17:04:30.294Z,17.73
2022-10-17T17:07:15.270Z,17.69
2022-10-17T17:10:00.684Z,17.64
2022-10-17T17:12:46.076Z,17.65
2022-10-17T17:15:31.080Z,17.61
2022-10-17T17:18:16.314Z,17.61
2022-10-17T17:21:03.257Z,17.59
2022-10-17T17:23:48.220Z,17.59
2022-10-17T17:26:35.316Z,17.52
2022-10-17T17:29:22.138Z,17.39
2022-10-17T17:32:07.163Z,17.29
2022-10-17T17:34:52.142Z,17.25
2022-10-17T17:37:37.108Z,17.22
2022-10-17T17:40:22.136Z,17.20
2022-10-17T17:43:07.830Z,17.24
2022-10-17T17:45:53.386Z,17.23
2022-10-17T17:48:43.151Z,17.24
2022-10-17T17:51:29.497Z,17.19
2022-10-17T17:54:14.796Z,17.11
2022-10-17T17:56:59.935Z,17.12
2022-10-17T17:59:45.061Z,17.06
2022-10-17T18:02:30.846Z,17.14
2022-10-17T18:05:16.605Z,17.17
2022-10-17T18:08:01.800Z,17.22
2022-10-17T18:10:48.637Z,17.11
2022-10-17T18:13:34.221Z,17.05
2022-10-17T18:16:19.159Z,17.02
2022-10-17T18:19:07.014Z,16.93
2022-10-17T18:21:53.092Z,16.90
2022-10-17T18:24:38.044Z,17.03
2022-10-17T18:27:23.241Z,17.09
2022-10-17T18:30:09.033Z,17.10
2022-10-17T18:32:54.551Z,17.17
2022-10-17T18:35:40.208Z,17.10
2022-10-17T18:38:25.577Z,16.97
2022-10-17T18:41:16.821Z,16.99
2022-10-17T18:44:02.336Z,16.98
2022-10-17T18:46:47.829Z,16.90
2022-10-17T18:49:33.266Z,16.97
2022-10-17T18:52:18.642Z,16.91
2022-10-17T18:55:04.295Z,16.79
2022-10-17T18:57:49.594Z,16.68
2022-10-17T19:00:34.807Z,16.66
2022-10-17T19:03:20.320Z,16.63
2022-10-17T19:06:07.998Z,16.68
2022-10-17T19:08:53.513Z,16.68
2022-10-17T19:11:39.493Z,16.64
2022-10-17T19:14:24.334Z,16.60
2022-10-17T19:17:09.753Z,16.58
2022-10-17T19:19:55.129Z,16.57
2022-10-17T19:22:40.752Z,16.57
2022-10-17T19:25:26.350Z,16.52
2022-10-17T19:28:11.497Z,16.56
2022-10-17T19:30:57.033Z,16.59
2022-10-17T19:33:42.778Z,16.58
2022-10-17T19:36:33.615Z,16.59
2022-10-17T19:39:21.366Z,16.61
2022-10-17T19:42:07.260Z,16.73
2022-10-17T19:44:52.423Z,16.76
2022-10-17T19:47:37.738Z,16.62
2022-10-17T19:50:22.700Z,16.64
2022-10-17T19:53:08.055Z,16.69
2022-10-17T19:55:53.709Z,16.57
2022-10-17T19:58:39.428Z,16.53
2022-10-17T20:01:28.087Z,16.55
2022-10-17T20:04:13.554Z,16.51
2022-10-17T20:06:58.734Z,16.50
2022-10-17T20:09:44.183Z,16.50
2022-10-17T20:12:29.904Z,16.52
2022-10-17T20:15:15.364Z,16.49
2022-10-17T20:18:00.923Z,16.47
2022-10-17T20:20:46.006Z,16.64
2022-10-17T20:23:31.454Z,16.68
2022-10-17T20:26:33.204Z,16.56
2022-10-17T20:29:21.741Z,16.53
2022-10-17T20:32:07.190Z,16.35
2022-10-17T20:34:52.598Z,16.37
2022-10-17T20:37:41.688Z,16.36
2022-10-17T20:40:35.951Z,16.47
2022-10-17T20:43:21.556Z,16.49
2022-10-17T20:46:22.967Z,16.42
2022-10-17T20:49:18.486Z,16.34
2022-10-17T20:52:03.737Z,16.44
2022-10-17T20:54:48.981Z,16.47
2022-10-17T20:57:34.424Z,16.41
2022-10-17T21:00:20.329Z,16.31
2022-10-17T21:03:06.551Z,16.31
2022-10-17T21:05:51.563Z,16.30
2022-10-17T21:08:37.432Z,16.36
2022-10-17T21:11:27.849Z,16.35
2022-10-17T21:14:13.777Z,16.34
2022-10-17T21:17:04.499Z,16.41
2022-10-17T21:19:50.234Z,16.32
2022-10-17T21:22:35.610Z,16.28
2022-10-17T21:25:20.942Z,16.33
2022-10-17T21:28:06.158Z,16.30
2022-10-17T21:30:51.590Z,16.26
2022-10-17T21:33:37.268Z,16.31
2022-10-17T21:36:23.829Z,16.34
2022-10-17T21:39:10.621Z,16.45
2022-10-17T21:41:56.044Z,16.47
2022-10-17T21:44:41.228Z,16.54
2022-10-17T21:47:27.694Z,16.62
2022-10-17T21:50:13.129Z,16.56
2022-10-17T21:52:58.473Z,16.52
2022-10-17T21:55:43.688Z,16.55
2022-10-17T21:58:29.415Z,16.55
2022-10-17T22:01:23.357Z,16.58
2022-10-17T22:04:16.283Z,16.51
2022-10-17T22:07:01.406Z,16.37
2022-10-17T22:09:46.446Z,16.38
2022-10-17T22:12:32.060Z,16.67
2022-10-17T22:15:17.350Z,16.47
2022-10-17T22:18:02.485Z,16.68
2022-10-17T22:20:47.475Z,16.50
2022-10-17T22:23:32.722Z,16.45
2022-10-17T22:26:17.556Z,16.38
2022-10-17T22:29:04.156Z,16.34
2022-10-17T22:31:49.529Z,16.30
2022-10-17T22:34:34.598Z,16.26
2022-10-17T22:37:19.796Z,16.23
2022-10-17T22:40:06.176Z,16.29
2022-10-17T22:42:51.333Z,16.31
2022-10-17T22:45:36.694Z,16.39
2022-10-17T22:48:22.768Z,16.36
2022-10-17T22:51:08.184Z,16.41
2022-10-17T22:53:53.490Z,16.35
2022-10-17T22:56:38.902Z,16.40
2022-10-17T22:59:24.269Z,16.36
2022-10-17T23:02:09.253Z,16.32
2022-10-17T23:04:54.267Z,16.26
2022-10-17T23:07:39.153Z,16.38
2022-10-17T23:10:24.593Z,16.35
2022-10-17T23:13:09.456Z,16.29
2022-10-17T23:15:56.251Z,16.29
2022-10-17T23:18:41.414Z,16.17
2022-10-17T23:21:27.072Z,16.12
2022-10-17T23:24:12.314Z,16.30
2022-10-17T23:26:57.317Z,16.22
2022-10-17T23:29:42.268Z,16.13
2022-10-17T23:32:27.232Z,16.03
2022-10-17T23:35:12.603Z,16.10
2022-10-17T23:37:58.007Z,16.20
2022-10-17T23:40:43.009Z,16.28
2022-10-17T23:43:28.295Z,16.25
2022-10-17T23:46:13.557Z,16.16
2022-10-17T23:48:58.545Z,16.10
2022-10-17T23:51:43.462Z,16.13
2022-10-17T23:54:28.639Z,16.21
2022-10-17T23:57:14.489Z,16.19
2022-10-17T23:59:59.387Z,16.24
